Time;durP1;ratioP1;P1;durP2;ratioP2;P2;SDS_P1;SDS_P2;PMS_P1;PMS_P2;Temp;Humidity;BMP_temperature;BMP_pressure;BME280_temperature;BME280_humidity;BME280_pressure;Samples;Min_cycle;Max_cycle;Signal;HPM_P1;HPM_P2
2021/07/14 00:01:18;;;;;;;3.28;2.60;;;21.60;99.90;;;;;;5052810;28;20055;-68
2021/07/14 00:03:43;;;;;;;6.18;2.95;;;21.50;99.90;;;;;;5052292;28;20457;-68
2021/07/14 00:06:09;;;;;;;3.55;2.72;;;21.50;99.90;;;;;;5052491;28;20040;-68
2021/07/14 00:08:35;;;;;;;5.47;3.10;;;21.50;99.90;;;;;;5052300;28;20032;-68
2021/07/14 00:11:01;;;;;;;5.40;2.78;;;21.50;99.90;;;;;;5052174;28;20045;-68
2021/07/14 00:13:32;;;;;;;4.68;2.85;;;21.40;99.90;;;;;;5052510;28;20072;-68
2021/07/14 00:24:03;;;;;;;4.55;2.75;;;21.30;99.90;;;;;;5052034;28;20081;-68
2021/07/14 00:26:29;;;;;;;3.13;2.78;;;21.30;99.90;;;;;;5052515;28;20495;-68
2021/07/14 00:28:55;;;;;;;3.20;2.60;;;21.20;99.90;;;;;;5051808;28;20025;-68
2021/07/14 00:31:21;;;;;;;3.78;2.88;;;21.20;99.90;;;;;;5052347;28;20043;-68
2021/07/14 00:33:47;;;;;;;4.05;3.00;;;21.20;99.90;;;;;;5052092;28;20032;-68
2021/07/14 00:36:13;;;;;;;3.92;2.80;;;21.20;99.90;;;;;;5051943;28;20388;-68
2021/07/14 00:38:40;;;;;;;4.43;3.33;;;21.20;99.90;;;;;;5052235;28;20067;-68
2021/07/14 00:41:06;;;;;;;3.60;2.85;;;21.10;99.90;;;;;;5051648;28;20031;-68
2021/07/14 00:43:33;;;;;;;4.57;2.85;;;21.10;99.90;;;;;;5052113;28;20153;-68
2021/07/14 00:46:19;;;;;;;3.22;2.92;;;21.00;99.90;;;;;;5052056;28;20025;-68
2021/07/14 00:48:47;;;;;;;6.22;3.15;;;21.00;99.90;;;;;;5051718;28;20045;-68
2021/07/14 00:51:12;;;;;;;4.85;3.00;;;20.90;99.90;;;;;;5051671;28;20033;-68
2021/07/14 00:53:38;;;;;;;4.38;3.22;;;20.90;99.90;;;;;;5051746;28;20112;-68
2021/07/14 00:56:04;;;;;;;5.07;3.05;;;20.90;99.90;;;;;;5051664;28;20037;-68
2021/07/14 00:58:32;;;;;;;5.90;3.30;;;20.90;99.90;;;;;;5051609;28;20060;-68
2021/07/14 01:00:59;;;;;;;5.03;3.03;;;20.80;99.90;;;;;;5051639;28;20507;-68
2021/07/14 01:03:29;;;;;;;3.13;2.70;;;20.80;99.90;;;;;;5051623;28;20033;-68
2021/07/14 01:05:57;;;;;;;4.13;3.40;;;20.70;99.90;;;;;;5051936;28;20028;-68
2021/07/14 01:08:42;;;;;;;3.92;3.33;;;20.70;99.90;;;;;;5052142;28;20037;-68
2021/07/14 01:11:12;;;;;;;3.72;3.25;;;20.70;99.90;;;;;;5051444;28;20504;-68
2021/07/14 01:13:49;;;;;;;5.57;3.22;;;20.70;99.90;;;;;;5051816;28;20060;-68
2021/07/14 01:16:18;;;;;;;3.70;3.15;;;20.60;99.90;;;;;;5051975;28;20448;-68
2021/07/14 01:52:30;;;;;;;3.83;3.03;;;20.30;99.90;;;;;;5746417;23;20306;-69
2021/07/14 01:54:58;;;;;;;3.28;2.97;;;20.30;99.90;;;;;;5015313;28;20056;-67
2021/07/14 01:57:29;;;;;;;3.70;3.25;;;20.30;99.90;;;;;;5015324;28;20029;-67
2021/07/14 01:59:56;;;;;;;3.75;3.15;;;20.30;99.90;;;;;;5015158;28;20026;-67
2021/07/14 02:02:25;;;;;;;4.25;3.65;;;20.20;99.90;;;;;;5015110;28;20049;-67
2021/07/14 02:04:53;;;;;;;4.75;3.58;;;20.20;99.90;;;;;;5015307;28;20034;-67
2021/07/14 02:07:25;;;;;;;4.68;3.53;;;20.20;99.90;;;;;;5015212;28;20054;-67
2021/07/14 02:09:52;;;;;;;5.13;3.40;;;20.20;99.90;;;;;;5015137;28;20042;-68
2021/07/14 02:12:29;;;;;;;5.90;3.58;;;20.20;99.90;;;;;;5014822;28;20022;-67
2021/07/14 02:15:05;;;;;;;4.82;3.65;;;20.20;99.90;;;;;;5015156;28;20068;-68
2021/07/14 02:17:36;;;;;;;5.28;3.47;;;20.10;99.90;;;;;;5014732;28;20037;-68
2021/07/14 02:20:11;;;;;;;4.35;3.17;;;20.10;99.90;;;;;;5015092;28;20037;-67
2021/07/14 02:22:38;;;;;;;5.57;3.83;;;20.10;99.90;;;;;;5014533;28;20022;-67
2021/07/14 02:25:06;;;;;;;8.30;3.70;;;20.10;99.90;;;;;;5014950;28;20057;-68
2021/07/14 02:27:32;;;;;;;4.55;4.05;;;20.10;99.90;;;;;;5014724;28;20026;-68
2021/07/14 02:29:58;;;;;;;3.63;3.30;;;20.10;99.90;;;;;;5014630;28;20097;-68
2021/07/14 02:32:25;;;;;;;3.88;3.35;;;20.10;99.90;;;;;;5014371;28;20388;-68
2021/07/14 02:34:54;;;;;;;4.07;3.70;;;20.10;99.90;;;;;;5014721;28;20037;-68
2021/07/14 02:37:50;;;;;;;4.53;3.65;;;20.10;99.90;;;;;;5014611;28;20124;-68
2021/07/14 02:40:34;;;;;;;3.95;3.42;;;20.10;99.90;;;;;;5014365;28;20026;-68
2021/07/14 02:43:03;;;;;;;4.18;3.58;;;20.10;99.90;;;;;;5013951;28;20495;-68
2021/07/14 02:45:30;;;;;;;4.60;3.58;;;20.20;99.90;;;;;;5014492;28;20030;-68
2021/07/14 02:48:01;;;;;;;4.28;3.50;;;20.20;99.90;;;;;;5014194;28;20026;-67
2021/07/14 02:50:31;;;;;;;4.22;3.45;;;20.20;99.90;;;;;;5014002;28;20091;-67
2021/07/14 02:53:04;;;;;;;5.50;3.92;;;20.20;99.90;;;;;;5013975;28;20386;-67
2021/07/14 02:55:33;;;;;;;4.40;3.78;;;20.20;99.90;;;;;;5014055;28;20033;-68
2021/07/14 02:58:01;;;;;;;5.20;3.67;;;20.30;99.90;;;;;;5013990;28;20053;-68
2021/07/14 03:00:29;;;;;;;3.92;3.53;;;20.30;99.90;;;;;;5013936;28;20022;-68
2021/07/14 03:02:55;;;;;;;5.60;3.70;;;20.30;99.90;;;;;;5014037;28;20021;-68
2021/07/14 03:05:21;;;;;;;4.32;3.33;;;20.40;99.90;;;;;;4996184;28;20382;-68
2021/07/14 03:07:48;;;;;;;4.30;3.38;;;20.50;99.90;;;;;;5014125;28;20022;-68
2021/07/14 03:10:19;;;;;;;3.70;3.40;;;20.60;99.90;;;;;;5013981;28;20185;-67
2021/07/14 03:12:52;;;;;;;3.45;3.15;;;20.60;99.90;;;;;;5013976;28;20083;-67
2021/07/14 03:15:18;;;;;;;3.60;3.30;;;20.60;99.90;;;;;;5013689;28;20022;-68
2021/07/14 03:17:47;;;;;;;3.80;3.15;;;20.60;99.90;;;;;;5013600;28;20496;-67
2021/07/14 03:20:16;;;;;;;5.28;3.30;;;20.70;99.90;;;;;;5013888;28;20068;-67
2021/07/14 03:22:44;;;;;;;3.55;3.20;;;20.90;99.90;;;;;;5013460;28;20065;-67
2021/07/14 03:25:12;;;;;;;5.50;3.10;;;21.30;99.90;;;;;;5013859;28;20026;-67
2021/07/14 03:27:41;;;;;;;5.07;2.78;;;21.70;99.90;;;;;;5013387;28;20026;-67
2021/07/14 03:30:08;;;;;;;3.72;2.80;;;22.00;99.90;;;;;;5013677;28;20034;-67
2021/07/14 03:32:34;;;;;;;5.95;3.80;;;22.30;99.90;;;;;;5013167;28;20475;-67
2021/07/14 03:34:59;;;;;;;5.70;2.55;;;22.40;99.90;;;;;;5013578;28;20061;-67
2021/07/14 03:37:26;;;;;;;3.55;2.75;;;22.30;99.90;;;;;;5013436;28;20042;-67
2021/07/14 03:39:53;;;;;;;2.67;2.47;;;22.30;99.90;;;;;;5013315;28;20101;-68
2021/07/14 03:42:20;;;;;;;3.00;2.67;;;22.20;99.90;;;;;;5013035;28;20072;-67
2021/07/14 03:44:48;;;;;;;3.28;2.72;;;22.30;99.90;;;;;;5013153;28;20488;-68
2021/07/14 03:47:16;;;;;;;4.80;2.40;;;22.50;99.90;;;;;;5013193;28;20037;-67
2021/07/14 03:49:43;;;;;;;2.58;2.38;;;22.70;99.90;;;;;;5013068;28;20030;-68
2021/07/14 03:52:09;;;;;;;2.50;2.30;;;22.90;99.90;;;;;;5013122;28;20100;-68
2021/07/14 03:54:37;;;;;;;2.58;2.38;;;23.20;99.90;;;;;;5012528;28;20021;-68
2021/07/14 03:57:04;;;;;;;3.55;2.20;;;23.60;99.90;;;;;;5013039;28;20033;-68
2021/07/14 03:59:31;;;;;;;4.10;2.50;;;23.90;99.90;;;;;;5012676;28;20117;-68
2021/07/14 04:01:57;;;;;;;4.53;2.38;;;24.30;99.90;;;;;;5012951;28;20030;-68
2021/07/14 04:04:23;;;;;;;4.45;2.10;;;24.50;98.80;;;;;;5012758;28;20022;-68
2021/07/14 04:06:57;;;;;;;2.28;2.08;;;24.70;97.90;;;;;;5013128;28;20026;-68
2021/07/14 04:09:26;;;;;;;3.35;2.30;;;24.80;97.30;;;;;;5012653;28;20547;-68
2021/07/14 04:12:02;;;;;;;2.38;2.00;;;25.10;96.60;;;;;;5012751;28;20477;-68
2021/07/14 04:14:29;;;;;;;2.88;2.10;;;25.30;94.70;;;;;;5012543;28;20085;-68
2021/07/14 04:16:56;;;;;;;3.20;2.20;;;25.50;94.10;;;;;;5013199;28;20030;-67
2021/07/14 04:19:23;;;;;;;3.08;1.90;;;25.80;93.10;;;;;;5012382;28;20496;-67
2021/07/14 04:21:49;;;;;;;2.40;1.80;;;26.00;92.10;;;;;;5012568;28;20030;-68
2021/07/14 04:24:15;;;;;;;2.00;1.80;;;26.20;91.30;;;;;;5012433;28;20026;-68
2021/07/14 04:26:41;;;;;;;2.25;1.85;;;26.20;90.60;;;;;;5012343;28;20030;-68
2021/07/14 04:29:07;;;;;;;2.25;2.00;;;26.20;90.10;;;;;;5012595;28;20029;-68
2021/07/14 04:31:34;;;;;;;1.85;1.60;;;26.30;89.20;;;;;;5012489;28;20388;-68
2021/07/14 04:34:01;;;;;;;1.38;1.27;;;26.50;86.80;;;;;;5012623;28;20092;-68
2021/07/14 04:36:27;;;;;;;1.60;1.50;;;26.70;83.90;;;;;;5012228;28;20026;-68
2021/07/14 04:38:52;;;;;;;1.65;1.55;;;26.80;81.80;;;;;;5012196;28;20065;-68
2021/07/14 04:41:18;;;;;;;1.33;1.23;;;26.90;77.90;;;;;;5012640;28;20025;-68
2021/07/14 04:43:44;;;;;;;1.67;1.00;;;27.20;76.10;;;;;;5012300;28;20428;-68
2021/07/14 04:46:10;;;;;;;1.23;0.80;;;27.40;73.20;;;;;;5012615;28;20477;-68
2021/07/14 04:48:35;;;;;;;0.70;0.70;;;27.50;68.70;;;;;;5012012;28;20109;-68
2021/07/14 04:51:01;;;;;;;1.10;0.77;;;27.70;63.00;;;;;;5012204;28;20033;-68
2021/07/14 04:53:27;;;;;;;0.70;0.70;;;27.90;60.80;;;;;;5011633;28;20050;-68
2021/07/14 04:55:53;;;;;;;0.77;0.77;;;28.00;60.00;;;;;;5012197;28;20026;-68
2021/07/14 04:58:18;;;;;;;0.60;0.60;;;28.00;60.20;;;;;;5012415;28;20108;-68
2021/07/14 05:00:44;;;;;;;4.57;0.65;;;27.90;59.30;;;;;;5011988;28;20037;-68
2021/07/14 05:03:10;;;;;;;0.88;0.70;;;28.00;58.20;;;;;;5012286;28;20080;-68
2021/07/14 05:05:36;;;;;;;0.80;0.70;;;28.10;57.00;;;;;;5012487;28;20481;-68
2021/07/14 05:08:01;;;;;;;0.93;0.50;;;28.30;56.30;;;;;;5016041;28;20018;-68
2021/07/14 05:10:31;;;;;;;0.52;0.52;;;28.40;56.00;;;;;;5015966;28;20037;-68
2021/07/14 05:12:57;;;;;;;0.82;0.43;;;28.60;54.60;;;;;;5016025;28;20474;-68
2021/07/14 05:15:24;;;;;;;0.93;0.50;;;28.70;53.80;;;;;;5015926;28;20057;-68
2021/07/14 05:17:50;;;;;;;0.70;0.57;;;28.80;54.40;;;;;;5016296;28;20026;-69
2021/07/14 05:20:17;;;;;;;2.28;0.40;;;28.80;53.30;;;;;;5015849;28;20025;-68
2021/07/14 05:22:44;;;;;;;0.40;0.40;;;28.90;52.40;;;;;;5015699;28;20038;-68
2021/07/14 05:25:10;;;;;;;0.57;0.40;;;29.10;51.90;;;;;;5015777;28;20049;-68
2021/07/14 05:27:36;;;;;;;1.20;0.40;;;29.20;51.80;;;;;;5015877;28;20477;-69
2021/07/14 05:30:05;;;;;;;0.60;0.60;;;29.20;51.10;;;;;;5015883;28;20041;-68
2021/07/14 05:32:31;;;;;;;0.70;0.43;;;29.20;51.90;;;;;;5015727;28;20060;-68
2021/07/14 05:34:57;;;;;;;0.50;0.45;;;29.10;52.20;;;;;;5015568;28;20485;-68
2021/07/14 05:37:23;;;;;;;1.13;0.60;;;29.10;51.70;;;;;;5015609;28;20030;-68
2021/07/14 05:39:49;;;;;;;0.52;0.52;;;29.00;51.70;;;;;;5015513;28;20030;-68
2021/07/14 05:42:14;;;;;;;0.40;0.40;;;28.90;52.40;;;;;;5015550;28;20073;-68
2021/07/14 05:44:40;;;;;;;1.00;0.50;;;28.90;52.20;;;;;;5015193;28;20036;-69
2021/07/14 05:47:06;;;;;;;2.13;0.60;;;29.00;52.60;;;;;;5015408;28;20064;-69
2021/07/14 05:49:32;;;;;;;1.00;0.80;;;29.10;52.40;;;;;;5015112;28;20052;-69
2021/07/14 05:51:57;;;;;;;1.13;0.63;;;29.00;51.60;;;;;;5015037;28;20033;-68
2021/07/14 05:54:23;;;;;;;2.83;0.60;;;29.00;51.80;;;;;;5015235;28;20030;-68
2021/07/14 05:56:49;;;;;;;0.50;0.50;;;29.00;51.80;;;;;;5015184;28;20026;-68
2021/07/14 05:59:15;;;;;;;0.90;0.60;;;29.10;52.10;;;;;;5015046;28;20381;-68
2021/07/14 06:01:40;;;;;;;0.55;0.50;;;29.20;51.40;;;;;;5014967;28;20046;-69
2021/07/14 06:04:06;;;;;;;0.50;0.50;;;29.40;50.70;;;;;;5015295;28;20029;-69
2021/07/14 06:06:32;;;;;;;0.50;0.50;;;29.50;50.60;;;;;;5015264;28;20037;-69
2021/07/14 06:08:58;;;;;;;0.95;0.52;;;29.60;50.00;;;;;;5014904;28;20026;-69
2021/07/14 06:11:24;;;;;;;0.60;0.60;;;29.50;50.80;;;;;;5015221;28;20042;-69
2021/07/14 06:13:51;;;;;;;0.73;0.60;;;29.40;50.70;;;;;;5015107;28;20468;-68
2021/07/14 06:16:17;;;;;;;0.50;0.50;;;29.30;50.70;;;;;;5014833;28;20030;-68
2021/07/14 06:18:42;;;;;;;3.30;0.68;;;29.40;49.90;;;;;;5014183;28;20021;-69
2021/07/14 06:21:08;;;;;;;0.88;0.60;;;29.50;49.00;;;;;;5015022;28;20473;-69
2021/07/14 06:23:35;;;;;;;0.80;0.55;;;29.60;49.40;;;;;;5014569;28;20022;-69
2021/07/14 06:26:01;;;;;;;0.63;0.40;;;29.50;50.00;;;;;;5014773;28;20057;-69
2021/07/14 06:28:27;;;;;;;0.47;0.40;;;29.50;49.20;;;;;;5014445;28;20108;-69
2021/07/14 06:30:53;;;;;;;0.55;0.50;;;29.50;49.30;;;;;;5014528;28;20121;-69
2021/07/14 06:33:22;;;;;;;0.63;0.40;;;29.50;49.10;;;;;;5014361;28;20034;-69
2021/07/14 06:35:49;;;;;;;2.40;0.50;;;29.70;49.10;;;;;;5014773;28;20038;-69
2021/07/14 06:38:15;;;;;;;2.17;0.55;;;29.80;48.60;;;;;;5014695;28;20030;-69
2021/07/14 06:40:41;;;;;;;1.25;0.63;;;29.90;49.60;;;;;;5014224;28;20116;-69
2021/07/14 06:43:13;;;;;;;1.45;0.70;;;29.90;49.20;;;;;;5014402;28;20026;-69
2021/07/14 06:45:38;;;;;;;1.23;0.70;;;29.90;49.40;;;;;;5014206;28;20109;-69
2021/07/14 06:48:04;;;;;;;4.00;0.75;;;30.00;50.30;;;;;;5014445;28;20110;-69
2021/07/14 06:50:30;;;;;;;1.10;0.50;;;30.00;50.10;;;;;;5014296;28;20041;-69
2021/07/14 06:52:56;;;;;;;2.38;0.60;;;30.00;50.50;;;;;;5014059;28;20049;-69
2021/07/14 06:55:22;;;;;;;0.57;0.57;;;29.90;50.90;;;;;;5014075;28;20381;-69
2021/07/14 06:57:48;;;;;;;0.75;0.50;;;29.80;50.80;;;;;;5014278;28;20048;-69
2021/07/14 07:00:14;;;;;;;0.47;0.47;;;29.70;50.00;;;;;;5014295;28;20462;-69
2021/07/14 07:02:41;;;;;;;0.50;0.40;;;29.50;49.00;;;;;;5013881;28;20033;-69
2021/07/14 07:05:07;;;;;;;2.15;0.43;;;29.50;47.80;;;;;;5014134;28;20037;-69
2021/07/14 07:07:33;;;;;;;1.38;0.50;;;29.40;49.10;;;;;;5013762;28;20536;-69
2021/07/14 07:09:59;;;;;;;2.38;0.50;;;29.40;50.50;;;;;;5013735;28;20037;-69
2021/07/14 07:12:27;;;;;;;1.00;0.55;;;29.50;49.90;;;;;;5013764;28;20113;-69
2021/07/14 07:14:54;;;;;;;1.00;0.50;;;29.40;49.70;;;;;;5013789;28;20022;-70
2021/07/14 07:17:20;;;;;;;0.73;0.63;;;29.30;49.30;;;;;;5013918;28;20032;-69
2021/07/14 07:19:45;;;;;;;0.80;0.50;;;29.20;49.30;;;;;;5013496;28;20030;-69
2021/07/14 07:22:11;;;;;;;2.40;0.40;;;29.10;49.50;;;;;;5013595;28;20030;-69
2021/07/14 07:24:37;;;;;;;0.52;0.30;;;29.10;50.80;;;;;;5013583;28;20034;-69
2021/07/14 07:27:04;;;;;;;0.40;0.30;;;29.10;49.70;;;;;;5013613;28;20065;-69
2021/07/14 07:29:30;;;;;;;0.40;0.40;;;29.00;48.80;;;;;;5012471;28;20034;-69
2021/07/14 07:31:56;;;;;;;0.60;0.60;;;29.00;48.80;;;;;;5013573;28;20057;-69
2021/07/14 07:34:22;;;;;;;0.70;0.43;;;29.10;49.40;;;;;;5013458;28;20101;-69
2021/07/14 07:36:48;;;;;;;0.38;0.32;;;29.10;49.30;;;;;;5013275;28;20032;-69
2021/07/14 07:39:14;;;;;;;0.40;0.40;;;29.10;49.30;;;;;;5013292;28;20029;-69
2021/07/14 07:41:41;;;;;;;1.50;0.80;;;29.10;49.00;;;;;;5013447;28;20121;-68
2021/07/14 07:44:07;;;;;;;0.57;0.30;;;29.10;48.70;;;;;;5013242;28;20113;-68
2021/07/14 07:46:33;;;;;;;0.63;0.40;;;29.00;48.30;;;;;;5013167;28;20061;-68
2021/07/14 07:49:00;;;;;;;0.80;0.52;;;29.00;48.30;;;;;;5013051;28;20034;-68
2021/07/14 07:51:26;;;;;;;0.45;0.40;;;29.00;49.30;;;;;;5013155;28;20034;-68
2021/07/14 07:53:53;;;;;;;0.40;0.40;;;28.90;49.20;;;;;;5012959;28;20056;-69
2021/07/14 07:56:19;;;;;;;0.40;0.40;;;28.90;49.30;;;;;;5013278;28;20057;-69
2021/07/14 07:58:45;;;;;;;1.67;0.47;;;28.90;49.20;;;;;;5013157;28;20422;-69
2021/07/14 08:01:11;;;;;;;0.40;0.38;;;28.90;50.10;;;;;;4995477;28;20630;-69
2021/07/14 08:03:37;;;;;;;1.55;0.40;;;28.90;49.60;;;;;;5013053;28;20430;-69
2021/07/14 08:06:03;;;;;;;0.68;0.30;;;28.80;49.30;;;;;;5013195;28;20029;-69
2021/07/14 08:08:29;;;;;;;4.00;0.90;;;28.80;48.70;;;;;;5012927;28;20025;-69
2021/07/14 08:10:56;;;;;;;0.85;0.20;;;28.70;47.90;;;;;;5011831;28;20401;-69
2021/07/14 08:13:23;;;;;;;1.55;0.43;;;28.70;48.60;;;;;;5027507;23;20471;-75
2021/07/14 08:15:50;;;;;;;0.30;0.30;;;28.70;48.80;;;;;;5012752;28;20030;-76
2021/07/14 08:18:16;;;;;;;2.05;0.40;;;28.60;48.40;;;;;;5013048;28;20044;-73
2021/07/14 08:20:42;;;;;;;2.88;0.50;;;28.70;48.50;;;;;;5012396;28;20555;-71
2021/07/14 08:23:09;;;;;;;0.40;0.30;;;28.60;49.70;;;;;;5012669;28;20034;-69
2021/07/14 08:25:35;;;;;;;0.82;0.45;;;28.70;49.80;;;;;;5012591;28;20458;-69
2021/07/14 08:28:01;;;;;;;0.30;0.30;;;28.70;50.10;;;;;;5012752;28;20061;-71
2021/07/14 08:30:27;;;;;;;0.85;0.50;;;28.70;50.10;;;;;;5012352;28;20077;-69
2021/07/14 08:32:53;;;;;;;0.65;0.60;;;28.60;49.30;;;;;;5012224;28;20030;-68
2021/07/14 08:35:19;;;;;;;1.83;0.70;;;28.50;51.00;;;;;;5012320;28;20382;-71
2021/07/14 08:37:46;;;;;;;0.52;0.50;;;28.50;50.40;;;;;;5012595;28;20121;-71
2021/07/14 08:40:13;;;;;;;0.60;0.52;;;28.50;51.70;;;;;;5012266;28;20057;-71
2021/07/14 08:42:42;;;;;;;16.25;1.00;;;28.40;50.50;;;;;;5012194;28;20018;-71
2021/07/14 08:45:14;;;;;;;0.68;0.50;;;28.30;51.30;;;;;;5012276;28;20025;-68
2021/07/14 08:47:40;;;;;;;4.07;0.50;;;28.30;51.10;;;;;;5012461;28;20026;-71
2021/07/14 08:50:09;;;;;;;1.30;0.45;;;28.20;51.60;;;;;;5012128;28;20495;-71
2021/07/14 08:52:39;;;;;;;0.63;0.40;;;28.20;52.20;;;;;;5012195;28;20052;-71
2021/07/14 08:55:05;;;;;;;2.10;0.30;;;28.20;51.90;;;;;;5011846;28;20022;-73
2021/07/14 08:57:31;;;;;;;0.50;0.50;;;28.20;52.20;;;;;;5012476;28;20220;-73
2021/07/14 08:59:57;;;;;;;4.75;0.60;;;28.20;52.10;;;;;;5011909;28;20112;-73
2021/07/14 09:02:23;;;;;;;8.23;1.08;;;28.10;52.10;;;;;;5011923;28;20034;-73
2021/07/14 09:04:49;;;;;;;0.63;0.32;;;28.00;52.10;;;;;;5011658;28;20084;-73
2021/07/14 09:07:15;;;;;;;1.90;0.50;;;27.90;52.00;;;;;;5012100;28;20033;-73
2021/07/14 09:09:42;;;;;;;1.05;0.50;;;27.80;51.20;;;;;;5011907;28;20437;-73
2021/07/14 09:12:10;;;;;;;0.70;0.52;;;27.60;52.10;;;;;;5011374;28;20120;-74
2021/07/14 09:14:38;;;;;;;5.70;0.60;;;27.50;51.80;;;;;;5011776;28;20045;-73
2021/07/14 09:17:17;;;;;;;2.63;0.60;;;27.50;52.00;;;;;;5011975;28;20543;-74
2021/07/14 09:19:43;;;;;;;2.08;0.68;;;27.40;51.20;;;;;;5011781;28;20030;-74
2021/07/14 09:22:23;;;;;;;7.93;0.98;;;27.30;52.60;;;;;;5011982;28;20021;-74
2021/07/14 09:24:49;;;;;;;1.95;0.60;;;27.40;52.50;;;;;;5011930;28;20046;-74
2021/07/14 09:27:18;;;;;;;4.78;0.82;;;27.30;52.30;;;;;;5012219;28;20053;-74
2021/07/14 09:30:11;;;;;;;1.52;0.77;;;27.30;52.10;;;;;;5011578;28;20034;-74
2021/07/14 09:33:13;;;;;;;1.23;0.65;;;27.30;54.30;;;;;;5012026;28;20253;-77
2021/07/14 09:35:45;;;;;;;2.97;0.50;;;27.20;52.60;;;;;;4951045;29;20028;-74
2021/07/14 09:38:15;;;;;;;2.20;0.50;;;27.10;53.40;;;;;;5002700;28;20034;-75
2021/07/14 09:40:43;;;;;;;2.83;0.57;;;27.10;52.40;;;;;;5011550;28;20424;-75
2021/07/14 09:43:13;;;;;;;1.63;0.50;;;27.10;53.20;;;;;;5011982;28;20105;-75
2021/07/14 09:45:55;;;;;;;0.80;0.55;;;27.10;52.40;;;;;;5011659;28;20117;-74
2021/07/14 09:48:39;;;;;;;0.70;0.50;;;27.00;52.10;;;;;;5012085;28;20092;-73
2021/07/14 09:51:11;;;;;;;1.25;0.50;;;26.90;51.80;;;;;;5011691;28;20117;-73
2021/07/14 09:53:42;;;;;;;1.63;0.60;;;26.70;51.90;;;;;;5013513;28;20022;-74
2021/07/14 09:56:23;;;;;;;3.38;0.82;;;26.60;52.40;;;;;;5015238;28;20503;-73
2021/07/14 09:59:09;;;;;;;0.85;0.43;;;26.60;52.50;;;;;;5013625;28;20041;-73
2021/07/14 10:01:42;;;;;;;1.17;0.50;;;26.60;52.00;;;;;;5014086;28;20103;-72
2021/07/14 10:04:13;;;;;;;0.73;0.30;;;26.40;51.90;;;;;;5014317;28;20025;-76
2021/07/14 10:06:39;;;;;;;3.03;0.40;;;26.40;52.40;;;;;;5014729;28;20030;-76
2021/07/14 10:09:05;;;;;;;2.45;0.60;;;26.40;52.90;;;;;;4996824;28;20057;-74
2021/07/14 10:11:32;;;;;;;2.15;0.50;;;26.40;53.20;;;;;;5014493;28;20034;-71
2021/07/14 10:14:02;;;;;;;2.22;0.50;;;26.40;53.20;;;;;;5014969;28;20045;-71
2021/07/14 10:16:39;;;;;;;1.92;0.80;;;26.40;52.70;;;;;;5014984;28;20028;-71
2021/07/14 10:19:12;;;;;;;4.10;0.73;;;26.40;53.10;;;;;;5014838;28;20034;-72
2021/07/14 10:21:41;;;;;;;3.08;0.55;;;26.40;53.30;;;;;;5014746;28;20026;-72
2021/07/14 10:24:10;;;;;;;2.20;0.57;;;26.30;53.30;;;;;;5015020;28;20081;-71
2021/07/14 10:26:38;;;;;;;0.80;0.50;;;26.20;53.30;;;;;;5014719;28;20092;-71
2021/07/14 10:29:05;;;;;;;5.82;0.75;;;26.20;53.50;;;;;;5014646;28;20053;-72
2021/07/14 10:31:31;;;;;;;5.80;0.60;;;26.20;54.70;;;;;;5014537;28;20042;-73
2021/07/14 10:33:57;;;;;;;2.83;0.60;;;26.20;54.30;;;;;;5014445;28;20033;-73
2021/07/14 10:36:27;;;;;;;2.15;0.57;;;26.30;54.60;;;;;;5014490;28;20030;-73
2021/07/14 10:38:55;;;;;;;21.23;1.10;;;26.30;54.40;;;;;;5014633;28;20112;-72
2021/07/14 10:41:22;;;;;;;5.75;0.95;;;26.20;55.00;;;;;;5014460;28;20028;-73
2021/07/14 10:43:50;;;;;;;1.27;0.70;;;26.20;54.90;;;;;;5014545;28;20098;-71
2021/07/14 10:46:23;;;;;;;5.38;0.70;;;26.30;55.00;;;;;;5013791;28;20143;-72
2021/07/14 10:48:50;;;;;;;19.60;1.30;;;26.30;54.50;;;;;;5011943;28;20022;-72
2021/07/14 10:51:18;;;;;;;6.13;0.70;;;26.20;54.70;;;;;;5013724;28;20034;-75
2021/07/14 10:53:45;;;;;;;4.45;0.50;;;26.30;54.70;;;;;;5013474;28;20066;-75
2021/07/14 10:56:13;;;;;;;8.88;1.00;;;26.30;54.40;;;;;;5013559;28;20022;-75
2021/07/14 10:58:41;;;;;;;5.03;0.60;;;26.40;55.20;;;;;;5013865;28;20025;-75
2021/07/14 11:01:07;;;;;;;6.18;0.70;;;26.40;54.90;;;;;;5013161;28;20106;-75
2021/07/14 11:03:42;;;;;;;16.10;2.75;;;26.30;54.60;;;;;;5013860;28;20030;-75
2021/07/14 11:06:10;;;;;;;6.07;0.80;;;26.30;54.70;;;;;;5014050;28;20068;-75
2021/07/14 11:08:44;;;;;;;31.10;5.32;;;26.20;54.20;;;;;;5013996;28;20042;-75
2021/07/14 11:11:15;;;;;;;3.40;0.90;;;26.20;55.30;;;;;;5013721;28;20481;-73
2021/07/14 11:13:42;;;;;;;4.72;0.50;;;26.20;54.70;;;;;;4996018;28;20541;-73
2021/07/14 11:16:29;;;;;;;2.67;0.82;;;26.10;54.10;;;;;;5013346;28;20500;-73
2021/07/14 11:19:20;;;;;;;3.67;0.80;;;26.00;55.80;;;;;;5003478;28;20018;-74
2021/07/14 11:22:05;;;;;;;11.88;3.13;;;26.10;56.00;;;;;;4994214;28;20105;-73
2021/07/14 11:24:42;;;;;;;1.42;0.50;;;26.10;55.70;;;;;;4994146;28;20022;-73
2021/07/14 11:27:26;;;;;;;5.22;0.60;;;25.90;53.30;;;;;;5001412;28;20061;-74
2021/07/14 11:30:11;;;;;;;3.80;0.88;;;25.80;53.40;;;;;;5013166;28;20025;-73
2021/07/14 11:32:40;;;;;;;6.78;1.98;;;25.60;53.50;;;;;;5002691;28;20042;-73
2021/07/14 11:35:18;;;;;;;31.97;1.37;;;25.60;54.20;;;;;;5013189;28;20056;-73
2021/07/14 11:37:45;;;;;;;4.63;0.68;;;25.60;53.70;;;;;;4995849;28;20030;-74
2021/07/14 11:40:20;;;;;;;3.30;0.60;;;25.50;52.30;;;;;;5013194;28;20121;-74
2021/07/14 11:43:20;;;;;;;9.00;0.77;;;25.50;51.30;;;;;;5013223;28;20018;-74
2021/07/14 11:45:49;;;;;;;;;;;25.40;52.00;;;;;;5002646;28;20117;-72
2021/07/14 11:48:26;;;;;;;1.17;0.50;;;25.40;52.70;;;;;;5012875;28;19910;-74
2021/07/14 11:51:08;;;;;;;20.13;2.05;;;25.30;53.30;;;;;;5012878;28;20034;-71
2021/07/14 11:53:41;;;;;;;7.00;0.88;;;25.30;53.70;;;;;;5013010;28;20548;-71
2021/07/14 11:56:34;;;;;;;3.67;0.52;;;25.30;54.10;;;;;;5012845;28;20034;-71
2021/07/14 11:59:24;;;;;;;1.10;0.60;;;25.30;56.30;;;;;;5012926;28;20079;-71
2021/07/14 12:02:13;;;;;;;51.10;2.30;;;25.40;55.10;;;;;;5012863;28;20046;-71
2021/07/14 12:04:40;;;;;;;7.00;0.60;;;25.40;56.50;;;;;;5011437;28;20034;-72
2021/07/14 12:07:07;;;;;;;2.50;0.68;;;25.40;56.40;;;;;;5025011;28;20111;-72
2021/07/14 12:09:36;;;;;;;2.63;0.60;;;25.40;55.60;;;;;;5014522;28;20400;-72
2021/07/14 12:12:21;;;;;;;5.85;0.60;;;25.30;55.70;;;;;;5032114;28;20041;-72
2021/07/14 12:14:51;;;;;;;8.52;0.80;;;25.30;56.00;;;;;;5032005;28;20090;-70
2021/07/14 12:19:58;;;;;;;5.47;0.75;;;25.40;55.60;;;;;;5036788;28;20106;-74
2021/07/14 12:22:26;;;;;;;5.07;0.45;;;25.40;55.60;;;;;;5050611;28;20033;-72
2021/07/14 12:24:57;;;;;;;7.00;0.82;;;25.30;55.30;;;;;;5038660;28;20045;-71
2021/07/14 12:27:28;;;;;;;4.25;1.23;;;25.20;55.40;;;;;;5040133;28;20049;-72
2021/07/14 12:30:06;;;;;;;1.33;0.38;;;25.20;56.60;;;;;;5040559;28;20037;-71
2021/07/14 12:32:35;;;;;;;5.70;0.70;;;25.20;56.60;;;;;;5041791;28;20038;-72
2021/07/14 12:35:04;;;;;;;1.38;0.70;;;25.20;56.40;;;;;;5041893;28;20025;-72
2021/07/14 12:37:32;;;;;;;3.30;0.73;;;25.20;56.80;;;;;;5034219;28;20496;-72
2021/07/14 12:39:58;;;;;;;1.45;0.35;;;25.30;56.40;;;;;;5042950;28;20052;-72
2021/07/14 12:42:23;;;;;;;2.38;0.57;;;25.30;56.30;;;;;;5036079;28;20017;-72
2021/07/14 12:44:51;;;;;;;5.80;0.80;;;25.20;56.20;;;;;;5041527;28;20037;-72
2021/07/14 12:47:22;;;;;;;1.17;0.60;;;25.20;56.90;;;;;;5043446;28;20480;-72
2021/07/14 12:49:50;;;;;;;0.90;0.50;;;25.20;56.70;;;;;;5046123;28;20094;-72
2021/07/14 12:52:23;;;;;;;2.53;0.90;;;25.20;56.30;;;;;;5042318;28;20431;-72
2021/07/14 12:54:55;;;;;;;2.33;0.70;;;25.00;56.10;;;;;;5035286;28;20021;-73
2021/07/14 12:57:26;;;;;;;1.40;0.70;;;25.00;56.60;;;;;;5032182;28;20083;-72
2021/07/14 13:00:16;;;;;;;1.83;0.70;;;24.90;56.60;;;;;;5051457;28;20017;-72
2021/07/14 13:02:52;;;;;;;1.60;0.75;;;24.80;57.40;;;;;;5048524;28;20033;-72
2021/07/14 13:05:20;;;;;;;1.33;0.68;;;24.80;57.20;;;;;;5041075;28;20023;-72
2021/07/14 13:07:55;;;;;;;1.95;0.80;;;24.70;57.10;;;;;;5032509;28;20024;-71
2021/07/14 13:10:22;;;;;;;2.92;1.10;;;24.70;57.30;;;;;;5031714;28;20021;-71
2021/07/14 13:12:51;;;;;;;25.90;2.33;;;24.80;58.30;;;;;;5031769;28;20030;-68
2021/07/14 13:15:19;;;;;;;;;;;24.90;57.80;;;;;;5032009;28;20112;-68
2021/07/14 13:17:45;;;;;;;7.90;1.10;;;24.80;57.40;;;;;;5027251;28;19913;-68
2021/07/14 13:20:14;;;;;;;3.72;0.75;;;24.80;57.70;;;;;;5011793;28;20034;-68
2021/07/14 13:22:42;;;;;;;2.22;1.00;;;24.80;57.50;;;;;;5011918;28;20084;-68
2021/07/14 13:25:15;;;;;;;5.05;1.38;;;24.80;57.30;;;;;;5011774;28;20050;-68
2021/07/14 13:27:46;;;;;;;2.65;0.77;;;24.80;57.60;;;;;;5014502;28;20034;-68
2021/07/14 13:30:48;;;;;;;25.05;2.08;;;24.80;57.20;;;;;;5015611;28;20033;-69
2021/07/14 13:33:31;;;;;;;2.97;1.05;;;24.90;57.80;;;;;;5011620;28;20246;-70
2021/07/14 13:35:59;;;;;;;4.15;1.05;;;24.80;58.60;;;;;;5025045;28;20021;-69
2021/07/14 13:38:32;;;;;;;3.17;1.23;;;24.80;58.60;;;;;;5019298;28;20092;-69
2021/07/14 13:41:16;;;;;;;6.85;1.27;;;24.80;58.70;;;;;;5018181;28;20021;-68
2021/07/14 13:43:47;;;;;;;24.20;2.08;;;24.70;58.50;;;;;;5025788;28;20022;-68